sensor_id;sensor_type;location;lat;lon;timestamp;temperature;humidity
25871;DHT22;13689;48.590;7.752;2022-12-08T00:00:10;5.20;85.50
25871;DHT22;13689;48.590;7.752;2022-12-08T00:02:35;5.10;85.60
25871;DHT22;13689;48.590;7.752;2022-12-08T00:05:01;5.10;85.70
25871;DHT22;13689;48.590;7.752;2022-12-08T00:07:45;5.10;85.80
25871;DHT22;13689;48.590;7.752;2022-12-08T00:10:29;5.00;85.80
25871;DHT22;13689;48.590;7.752;2022-12-08T00:12:55;5.00;85.80
25871;DHT22;13689;48.590;7.752;2022-12-08T00:15:20;4.90;85.80
25871;DHT22;13689;48.590;7.752;2022-12-08T00:17:46;4.90;85.90
25871;DHT22;13689;48.590;7.752;2022-12-08T00:20:11;4.90;86.00
25871;DHT22;13689;48.590;7.752;2022-12-08T00:22:37;4.80;86.00
25871;DHT22;13689;48.590;7.752;2022-12-08T00:25:02;4.80;86.10
25871;DHT22;13689;48.590;7.752;2022-12-08T00:27:28;4.70;86.10
25871;DHT22;13689;48.590;7.752;2022-12-08T00:29:53;4.70;86.10
25871;DHT22;13689;48.590;7.752;2022-12-08T00:32:19;4.70;86.10
25871;DHT22;13689;48.590;7.752;2022-12-08T00:34:44;4.70;86.90
25871;DHT22;13689;48.590;7.752;2022-12-08T00:37:10;4.70;86.10
25871;DHT22;13689;48.590;7.752;2022-12-08T00:39:35;4.70;86.10
25871;DHT22;13689;48.590;7.752;2022-12-08T00:42:01;4.70;86.10
25871;DHT22;13689;48.590;7.752;2022-12-08T00:44:39;4.70;86.10
25871;DHT22;13689;48.590;7.752;2022-12-08T00:47:04;4.70;86.10
25871;DHT22;13689;48.590;7.752;2022-12-08T00:49:30;4.70;86.10
25871;DHT22;13689;48.590;7.752;2022-12-08T00:51:55;4.60;86.20
25871;DHT22;13689;48.590;7.752;2022-12-08T00:54:21;4.60;86.10
25871;DHT22;13689;48.590;7.752;2022-12-08T00:56:47;4.60;86.10
25871;DHT22;13689;48.590;7.752;2022-12-08T00:59:19;4.60;86.20
25871;DHT22;13689;48.590;7.752;2022-12-08T01:01:45;4.50;86.20
25871;DHT22;13689;48.590;7.752;2022-12-08T01:04:12;4.50;86.30
25871;DHT22;13689;48.590;7.752;2022-12-08T01:06:40;4.50;86.30
25871;DHT22;13689;48.590;7.752;2022-12-08T01:09:06;4.50;86.40
25871;DHT22;13689;48.590;7.752;2022-12-08T01:11:32;4.50;86.50
25871;DHT22;13689;48.590;7.752;2022-12-08T01:13:58;4.50;86.50
25871;DHT22;13689;48.590;7.752;2022-12-08T01:16:25;4.50;86.50
25871;DHT22;13689;48.590;7.752;2022-12-08T01:18:50;4.50;86.50
25871;DHT22;13689;48.590;7.752;2022-12-08T01:21:16;4.50;86.50
25871;DHT22;13689;48.590;7.752;2022-12-08T01:23:42;4.50;86.40
25871;DHT22;13689;48.590;7.752;2022-12-08T01:26:08;4.50;86.40
25871;DHT22;13689;48.590;7.752;2022-12-08T01:28:34;4.50;87.30
25871;DHT22;13689;48.590;7.752;2022-12-08T01:31:00;4.50;86.50
25871;DHT22;13689;48.590;7.752;2022-12-08T01:33:26;4.40;86.50
25871;DHT22;13689;48.590;7.752;2022-12-08T01:35:52;4.40;86.50
25871;DHT22;13689;48.590;7.752;2022-12-08T01:38:18;4.30;86.60
25871;DHT22;13689;48.590;7.752;2022-12-08T01:40:44;4.30;86.70
25871;DHT22;13689;48.590;7.752;2022-12-08T01:43:12;4.30;86.70
25871;DHT22;13689;48.590;7.752;2022-12-08T01:45:38;4.30;87.00
25871;DHT22;13689;48.590;7.752;2022-12-08T01:48:05;4.40;87.00
25871;DHT22;13689;48.590;7.752;2022-12-08T01:50:32;4.40;86.80
25871;DHT22;13689;48.590;7.752;2022-12-08T01:53:00;4.50;86.90
25871;DHT22;13689;48.590;7.752;2022-12-08T01:55:30;4.40;86.70
25871;DHT22;13689;48.590;7.752;2022-12-08T01:57:59;4.40;86.60
25871;DHT22;13689;48.590;7.752;2022-12-08T02:00:25;4.40;86.60
25871;DHT22;13689;48.590;7.752;2022-12-08T02:05:20;4.40;86.80
25871;DHT22;13689;48.590;7.752;2022-12-08T02:07:46;4.30;86.70
25871;DHT22;13689;48.590;7.752;2022-12-08T02:10:13;4.30;86.80
25871;DHT22;13689;48.590;7.752;2022-12-08T02:12:40;4.30;86.90
25871;DHT22;13689;48.590;7.752;2022-12-08T02:15:06;4.20;86.90
25871;DHT22;13689;48.590;7.752;2022-12-08T02:20:30;4.20;87.00
25871;DHT22;13689;48.590;7.752;2022-12-08T02:23:00;4.20;87.00
25871;DHT22;13689;48.590;7.752;2022-12-08T02:30:47;4.10;87.30
25871;DHT22;13689;48.590;7.752;2022-12-08T02:36:14;4.10;87.30
25871;DHT22;13689;48.590;7.752;2022-12-08T02:41:19;4.00;87.40
25871;DHT22;13689;48.590;7.752;2022-12-08T02:43:47;4.00;87.50
25871;DHT22;13689;48.590;7.752;2022-12-08T02:46:15;4.00;87.50
25871;DHT22;13689;48.590;7.752;2022-12-08T02:48:42;4.00;87.50
25871;DHT22;13689;48.590;7.752;2022-12-08T02:51:08;4.00;87.50
25871;DHT22;13689;48.590;7.752;2022-12-08T02:53:33;4.00;87.50
25871;DHT22;13689;48.590;7.752;2022-12-08T03:01:25;4.00;87.70
25871;DHT22;13689;48.590;7.752;2022-12-08T03:06:23;4.00;87.80
25871;DHT22;13689;48.590;7.752;2022-12-08T03:08:57;4.00;87.80
25871;DHT22;13689;48.590;7.752;2022-12-08T03:11:27;4.10;87.90
25871;DHT22;13689;48.590;7.752;2022-12-08T03:13:58;4.00;87.80
25871;DHT22;13689;48.590;7.752;2022-12-08T03:16:25;4.00;87.80
25871;DHT22;13689;48.590;7.752;2022-12-08T03:18:52;4.00;87.80
25871;DHT22;13689;48.590;7.752;2022-12-08T03:21:19;4.00;87.90
25871;DHT22;13689;48.590;7.752;2022-12-08T03:23:46;4.00;87.90
25871;DHT22;13689;48.590;7.752;2022-12-08T03:26:16;4.10;88.00
25871;DHT22;13689;48.590;7.752;2022-12-08T03:28:43;4.10;88.10
25871;DHT22;13689;48.590;7.752;2022-12-08T03:31:09;4.20;88.20
25871;DHT22;13689;48.590;7.752;2022-12-08T03:33:36;4.20;88.20
25871;DHT22;13689;48.590;7.752;2022-12-08T03:36:04;4.30;88.20
25871;DHT22;13689;48.590;7.752;2022-12-08T03:38:39;4.30;88.20
25871;DHT22;13689;48.590;7.752;2022-12-08T03:41:05;4.40;88.20
25871;DHT22;13689;48.590;7.752;2022-12-08T03:43:42;4.50;88.20
25871;DHT22;13689;48.590;7.752;2022-12-08T03:46:08;4.50;88.10
25871;DHT22;13689;48.590;7.752;2022-12-08T03:48:33;4.60;88.00
25871;DHT22;13689;48.590;7.752;2022-12-08T03:50:59;4.60;87.90
25871;DHT22;13689;48.590;7.752;2022-12-08T03:53:24;4.60;87.80
25871;DHT22;13689;48.590;7.752;2022-12-08T03:55:51;4.60;87.90
25871;DHT22;13689;48.590;7.752;2022-12-08T03:58:16;4.60;87.90
25871;DHT22;13689;48.590;7.752;2022-12-08T04:00:43;4.60;87.80
25871;DHT22;13689;48.590;7.752;2022-12-08T04:03:08;4.60;87.90
25871;DHT22;13689;48.590;7.752;2022-12-08T04:05:34;4.60;87.90
25871;DHT22;13689;48.590;7.752;2022-12-08T04:07:59;4.50;87.90
25871;DHT22;13689;48.590;7.752;2022-12-08T04:10:25;4.50;88.00
25871;DHT22;13689;48.590;7.752;2022-12-08T04:12:51;4.50;88.20
25871;DHT22;13689;48.590;7.752;2022-12-08T04:15:16;4.50;88.30
25871;DHT22;13689;48.590;7.752;2022-12-08T04:17:41;4.50;88.30
25871;DHT22;13689;48.590;7.752;2022-12-08T04:20:07;4.50;88.40
25871;DHT22;13689;48.590;7.752;2022-12-08T04:22:33;4.50;88.40
25871;DHT22;13689;48.590;7.752;2022-12-08T04:24:58;4.50;88.50
25871;DHT22;13689;48.590;7.752;2022-12-08T04:27:24;4.50;88.50
25871;DHT22;13689;48.590;7.752;2022-12-08T04:29:49;4.50;88.60
25871;DHT22;13689;48.590;7.752;2022-12-08T04:32:15;4.50;88.60
25871;DHT22;13689;48.590;7.752;2022-12-08T04:34:40;4.50;88.60
25871;DHT22;13689;48.590;7.752;2022-12-08T04:37:06;4.50;88.50
25871;DHT22;13689;48.590;7.752;2022-12-08T04:39:31;4.60;88.60
25871;DHT22;13689;48.590;7.752;2022-12-08T04:41:57;4.60;88.50
25871;DHT22;13689;48.590;7.752;2022-12-08T04:44:22;4.60;88.50
25871;DHT22;13689;48.590;7.752;2022-12-08T04:46:47;4.50;88.50
25871;DHT22;13689;48.590;7.752;2022-12-08T04:49:16;4.50;88.50
25871;DHT22;13689;48.590;7.752;2022-12-08T04:51:42;4.50;88.40
25871;DHT22;13689;48.590;7.752;2022-12-08T04:54:07;4.50;88.60
25871;DHT22;13689;48.590;7.752;2022-12-08T04:56:33;4.50;88.60
25871;DHT22;13689;48.590;7.752;2022-12-08T04:58:58;4.50;88.60
25871;DHT22;13689;48.590;7.752;2022-12-08T05:01:24;4.50;88.60
25871;DHT22;13689;48.590;7.752;2022-12-08T05:03:49;4.50;88.60
25871;DHT22;13689;48.590;7.752;2022-12-08T05:06:15;4.50;88.60
25871;DHT22;13689;48.590;7.752;2022-12-08T05:08:41;4.50;88.60
25871;DHT22;13689;48.590;7.752;2022-12-08T05:11:07;4.50;88.60
25871;DHT22;13689;48.590;7.752;2022-12-08T05:13:33;4.50;88.80
25871;DHT22;13689;48.590;7.752;2022-12-08T05:16:06;4.40;88.80
25871;DHT22;13689;48.590;7.752;2022-12-08T05:18:32;4.40;88.80
25871;DHT22;13689;48.590;7.752;2022-12-08T05:20:57;4.40;88.80
25871;DHT22;13689;48.590;7.752;2022-12-08T05:23:23;4.40;88.80
25871;DHT22;13689;48.590;7.752;2022-12-08T05:25:49;4.40;88.80
25871;DHT22;13689;48.590;7.752;2022-12-08T05:28:15;4.40;88.80
25871;DHT22;13689;48.590;7.752;2022-12-08T05:30:40;4.40;88.90
25871;DHT22;13689;48.590;7.752;2022-12-08T05:33:06;4.30;89.00
25871;DHT22;13689;48.590;7.752;2022-12-08T05:35:31;4.40;88.90
25871;DHT22;13689;48.590;7.752;2022-12-08T05:37:56;4.30;88.90
25871;DHT22;13689;48.590;7.752;2022-12-08T05:40:22;4.30;89.00
25871;DHT22;13689;48.590;7.752;2022-12-08T05:42:47;4.30;89.00
25871;DHT22;13689;48.590;7.752;2022-12-08T05:45:13;4.30;89.10
25871;DHT22;13689;48.590;7.752;2022-12-08T05:47:38;4.30;89.00
25871;DHT22;13689;48.590;7.752;2022-12-08T05:50:04;4.30;89.00
25871;DHT22;13689;48.590;7.752;2022-12-08T05:52:30;4.40;89.00
25871;DHT22;13689;48.590;7.752;2022-12-08T05:54:56;4.30;88.90
25871;DHT22;13689;48.590;7.752;2022-12-08T05:57:21;4.30;89.00
25871;DHT22;13689;48.590;7.752;2022-12-08T05:59:47;4.20;89.00
25871;DHT22;13689;48.590;7.752;2022-12-08T06:02:12;4.20;89.10
25871;DHT22;13689;48.590;7.752;2022-12-08T06:04:38;4.10;89.10
25871;DHT22;13689;48.590;7.752;2022-12-08T06:07:03;4.10;89.10
25871;DHT22;13689;48.590;7.752;2022-12-08T06:09:29;4.00;88.80
25871;DHT22;13689;48.590;7.752;2022-12-08T06:11:54;3.90;89.10
25871;DHT22;13689;48.590;7.752;2022-12-08T06:14:20;3.80;89.40
25871;DHT22;13689;48.590;7.752;2022-12-08T06:16:45;3.90;89.60
25871;DHT22;13689;48.590;7.752;2022-12-08T06:19:11;3.90;89.70
25871;DHT22;13689;48.590;7.752;2022-12-08T06:21:36;3.90;89.80
25871;DHT22;13689;48.590;7.752;2022-12-08T06:24:02;3.80;89.70
25871;DHT22;13689;48.590;7.752;2022-12-08T06:26:27;3.80;89.50
25871;DHT22;13689;48.590;7.752;2022-12-08T06:28:53;3.80;89.60
25871;DHT22;13689;48.590;7.752;2022-12-08T06:31:20;3.70;89.70
25871;DHT22;13689;48.590;7.752;2022-12-08T06:33:46;3.60;89.80
25871;DHT22;13689;48.590;7.752;2022-12-08T06:36:13;3.60;89.80
25871;DHT22;13689;48.590;7.752;2022-12-08T06:38:39;3.60;89.90
25871;DHT22;13689;48.590;7.752;2022-12-08T06:41:04;3.60;90.10
25871;DHT22;13689;48.590;7.752;2022-12-08T06:43:30;3.60;90.10
25871;DHT22;13689;48.590;7.752;2022-12-08T06:45:59;3.60;90.10
25871;DHT22;13689;48.590;7.752;2022-12-08T06:48:25;3.70;90.10
25871;DHT22;13689;48.590;7.752;2022-12-08T06:50:50;3.70;90.10
25871;DHT22;13689;48.590;7.752;2022-12-08T06:53:16;3.70;90.00
25871;DHT22;13689;48.590;7.752;2022-12-08T06:55:44;3.80;90.00
25871;DHT22;13689;48.590;7.752;2022-12-08T06:58:11;3.80;90.10
25871;DHT22;13689;48.590;7.752;2022-12-08T07:00:37;3.90;90.10
25871;DHT22;13689;48.590;7.752;2022-12-08T07:03:02;3.90;90.10
25871;DHT22;13689;48.590;7.752;2022-12-08T07:05:28;3.90;90.00
25871;DHT22;13689;48.590;7.752;2022-12-08T07:07:53;3.90;90.00
25871;DHT22;13689;48.590;7.752;2022-12-08T07:10:19;4.00;90.00
25871;DHT22;13689;48.590;7.752;2022-12-08T07:12:44;4.00;90.00
25871;DHT22;13689;48.590;7.752;2022-12-08T07:15:10;4.00;89.80
25871;DHT22;13689;48.590;7.752;2022-12-08T07:17:35;4.00;89.90
25871;DHT22;13689;48.590;7.752;2022-12-08T07:20:01;4.00;90.00
25871;DHT22;13689;48.590;7.752;2022-12-08T07:22:27;4.00;90.00
25871;DHT22;13689;48.590;7.752;2022-12-08T07:24:52;4.00;89.80
25871;DHT22;13689;48.590;7.752;2022-12-08T07:27:18;4.10;90.00
25871;DHT22;13689;48.590;7.752;2022-12-08T07:29:43;4.00;90.00
25871;DHT22;13689;48.590;7.752;2022-12-08T07:32:09;4.00;90.00
25871;DHT22;13689;48.590;7.752;2022-12-08T07:34:34;4.10;90.00
25871;DHT22;13689;48.590;7.752;2022-12-08T07:37:00;4.10;90.00
25871;DHT22;13689;48.590;7.752;2022-12-08T07:39:26;4.10;90.00
25871;DHT22;13689;48.590;7.752;2022-12-08T07:41:51;4.10;90.00
25871;DHT22;13689;48.590;7.752;2022-12-08T07:44:17;4.10;90.00
25871;DHT22;13689;48.590;7.752;2022-12-08T07:46:42;4.20;90.00
25871;DHT22;13689;48.590;7.752;2022-12-08T07:49:08;4.20;90.00
25871;DHT22;13689;48.590;7.752;2022-12-08T07:51:33;4.30;90.10
25871;DHT22;13689;48.590;7.752;2022-12-08T07:53:59;4.30;90.00
25871;DHT22;13689;48.590;7.752;2022-12-08T07:56:24;4.30;90.00
25871;DHT22;13689;48.590;7.752;2022-12-08T07:58:50;4.30;90.00
25871;DHT22;13689;48.590;7.752;2022-12-08T08:03:44;4.40;90.00
25871;DHT22;13689;48.590;7.752;2022-12-08T08:06:10;4.40;90.00
25871;DHT22;13689;48.590;7.752;2022-12-08T08:08:35;4.40;90.00
25871;DHT22;13689;48.590;7.752;2022-12-08T08:11:04;4.40;89.80
25871;DHT22;13689;48.590;7.752;2022-12-08T08:13:30;4.40;89.80
25871;DHT22;13689;48.590;7.752;2022-12-08T08:16:01;4.40;89.80
25871;DHT22;13689;48.590;7.752;2022-12-08T08:18:26;4.30;89.70
25871;DHT22;13689;48.590;7.752;2022-12-08T08:20:52;4.20;89.70
25871;DHT22;13689;48.590;7.752;2022-12-08T08:23:17;4.30;89.90
25871;DHT22;13689;48.590;7.752;2022-12-08T08:25:43;4.30;90.00
25871;DHT22;13689;48.590;7.752;2022-12-08T08:28:08;4.40;90.00
25871;DHT22;13689;48.590;7.752;2022-12-08T08:30:34;4.50;89.60
25871;DHT22;13689;48.590;7.752;2022-12-08T08:32:59;4.50;89.30
25871;DHT22;13689;48.590;7.752;2022-12-08T08:35:25;4.60;89.70
25871;DHT22;13689;48.590;7.752;2022-12-08T08:37:50;4.60;89.60
25871;DHT22;13689;48.590;7.752;2022-12-08T08:40:16;4.60;89.70
25871;DHT22;13689;48.590;7.752;2022-12-08T08:42:42;4.70;89.60
25871;DHT22;13689;48.590;7.752;2022-12-08T08:45:08;4.70;89.60
25871;DHT22;13689;48.590;7.752;2022-12-08T08:47:33;4.70;89.50
25871;DHT22;13689;48.590;7.752;2022-12-08T08:49:59;4.80;90.10
25871;DHT22;13689;48.590;7.752;2022-12-08T08:52:24;4.80;89.50
25871;DHT22;13689;48.590;7.752;2022-12-08T08:54:50;4.90;89.50
25871;DHT22;13689;48.590;7.752;2022-12-08T08:57:15;4.80;89.10
25871;DHT22;13689;48.590;7.752;2022-12-08T08:59:42;4.90;89.30
25871;DHT22;13689;48.590;7.752;2022-12-08T09:02:10;4.90;89.10
25871;DHT22;13689;48.590;7.752;2022-12-08T09:04:39;5.00;89.20
25871;DHT22;13689;48.590;7.752;2022-12-08T09:07:05;5.00;89.20
25871;DHT22;13689;48.590;7.752;2022-12-08T09:09:30;5.10;89.20
25871;DHT22;13689;48.590;7.752;2022-12-08T09:11:56;5.20;89.20
25871;DHT22;13689;48.590;7.752;2022-12-08T09:14:21;5.20;89.10
25871;DHT22;13689;48.590;7.752;2022-12-08T09:16:48;5.30;89.20
25871;DHT22;13689;48.590;7.752;2022-12-08T09:19:13;5.40;89.00
25871;DHT22;13689;48.590;7.752;2022-12-08T09:21:39;5.40;88.90
25871;DHT22;13689;48.590;7.752;2022-12-08T09:24:05;5.40;88.70
25871;DHT22;13689;48.590;7.752;2022-12-08T09:26:30;5.30;88.60
25871;DHT22;13689;48.590;7.752;2022-12-08T09:28:56;5.30;88.60
25871;DHT22;13689;48.590;7.752;2022-12-08T09:31:22;5.30;88.60
25871;DHT22;13689;48.590;7.752;2022-12-08T09:33:47;5.20;88.40
25871;DHT22;13689;48.590;7.752;2022-12-08T09:36:15;5.20;88.50
25871;DHT22;13689;48.590;7.752;2022-12-08T09:38:41;5.20;88.50
25871;DHT22;13689;48.590;7.752;2022-12-08T09:41:19;5.20;88.40
25871;DHT22;13689;48.590;7.752;2022-12-08T09:43:51;5.30;88.40
25871;DHT22;13689;48.590;7.752;2022-12-08T09:46:20;5.50;88.50
25871;DHT22;13689;48.590;7.752;2022-12-08T09:48:48;5.60;88.20
25871;DHT22;13689;48.590;7.752;2022-12-08T09:51:19;5.70;88.00
25871;DHT22;13689;48.590;7.752;2022-12-08T09:53:47;5.70;87.80
25871;DHT22;13689;48.590;7.752;2022-12-08T09:56:14;5.70;87.90
25871;DHT22;13689;48.590;7.752;2022-12-08T09:59:27;5.80;87.80
25871;DHT22;13689;48.590;7.752;2022-12-08T10:01:27;5.80;87.60
25871;DHT22;13689;48.590;7.752;2022-12-08T10:03:53;5.70;87.30
25871;DHT22;13689;48.590;7.752;2022-12-08T10:06:21;5.70;87.30
25871;DHT22;13689;48.590;7.752;2022-12-08T10:11:43;5.70;87.10
25871;DHT22;13689;48.590;7.752;2022-12-08T10:14:16;5.80;87.10
25871;DHT22;13689;48.590;7.752;2022-12-08T10:16:47;5.90;87.10
25871;DHT22;13689;48.590;7.752;2022-12-08T10:19:22;6.00;87.10
25871;DHT22;13689;48.590;7.752;2022-12-08T10:21:50;6.10;87.00
25871;DHT22;13689;48.590;7.752;2022-12-08T10:24:30;6.20;86.80
25871;DHT22;13689;48.590;7.752;2022-12-08T10:26:57;6.20;86.70
25871;DHT22;13689;48.590;7.752;2022-12-08T10:29:23;6.20;86.50
25871;DHT22;13689;48.590;7.752;2022-12-08T10:31:48;6.30;86.50
25871;DHT22;13689;48.590;7.752;2022-12-08T10:34:15;6.40;86.50
25871;DHT22;13689;48.590;7.752;2022-12-08T10:36:45;6.50;86.40
25871;DHT22;13689;48.590;7.752;2022-12-08T10:41:52;6.70;86.20
25871;DHT22;13689;48.590;7.752;2022-12-08T10:44:17;6.70;86.00
25871;DHT22;13689;48.590;7.752;2022-12-08T10:46:43;6.80;86.00
25871;DHT22;13689;48.590;7.752;2022-12-08T10:49:09;6.90;85.80
25871;DHT22;13689;48.590;7.752;2022-12-08T10:51:41;6.80;85.50
25871;DHT22;13689;48.590;7.752;2022-12-08T10:54:23;6.70;85.30
25871;DHT22;13689;48.590;7.752;2022-12-08T10:56:54;6.70;85.30
25871;DHT22;13689;48.590;7.752;2022-12-08T10:59:20;6.60;85.30
25871;DHT22;13689;48.590;7.752;2022-12-08T11:01:47;6.60;85.30
25871;DHT22;13689;48.590;7.752;2022-12-08T11:04:19;6.70;85.40
25871;DHT22;13689;48.590;7.752;2022-12-08T11:06:46;6.80;85.40
25871;DHT22;13689;48.590;7.752;2022-12-08T11:14:14;6.90;85.00
25871;DHT22;13689;48.590;7.752;2022-12-08T11:16:40;6.90;85.00
25871;DHT22;13689;48.590;7.752;2022-12-08T11:19:11;6.90;84.70
25871;DHT22;13689;48.590;7.752;2022-12-08T11:21:37;6.80;84.70
25871;DHT22;13689;48.590;7.752;2022-12-08T11:24:10;6.80;84.80
25871;DHT22;13689;48.590;7.752;2022-12-08T11:26:47;6.80;84.60
25871;DHT22;13689;48.590;7.752;2022-12-08T11:29:13;6.80;84.70
25871;DHT22;13689;48.590;7.752;2022-12-08T11:31:43;6.80;84.50
25871;DHT22;13689;48.590;7.752;2022-12-08T11:34:16;6.70;84.40
25871;DHT22;13689;48.590;7.752;2022-12-08T11:36:43;6.80;84.60
25871;DHT22;13689;48.590;7.752;2022-12-08T11:39:10;6.70;84.60
25871;DHT22;13689;48.590;7.752;2022-12-08T11:41:37;6.70;84.50
25871;DHT22;13689;48.590;7.752;2022-12-08T11:44:09;6.70;84.50
25871;DHT22;13689;48.590;7.752;2022-12-08T11:46:54;6.70;84.30
25871;DHT22;13689;48.590;7.752;2022-12-08T11:49:21;6.60;84.30
25871;DHT22;13689;48.590;7.752;2022-12-08T11:54:31;6.70;84.40
25871;DHT22;13689;48.590;7.752;2022-12-08T11:56:59;6.70;84.30
25871;DHT22;13689;48.590;7.752;2022-12-08T12:01:51;6.80;84.10
25871;DHT22;13689;48.590;7.752;2022-12-08T12:04:19;6.80;83.90
25871;DHT22;13689;48.590;7.752;2022-12-08T12:06:53;6.80;83.80
25871;DHT22;13689;48.590;7.752;2022-12-08T12:14:49;6.80;83.50
25871;DHT22;13689;48.590;7.752;2022-12-08T12:20:02;6.80;83.40
25871;DHT22;13689;48.590;7.752;2022-12-08T12:22:30;6.80;83.30
25871;DHT22;13689;48.590;7.752;2022-12-08T12:24:57;6.80;83.00
25871;DHT22;13689;48.590;7.752;2022-12-08T12:27:27;6.80;82.80
25871;DHT22;13689;48.590;7.752;2022-12-08T12:29:57;6.80;82.80
25871;DHT22;13689;48.590;7.752;2022-12-08T12:32:24;6.80;82.70
25871;DHT22;13689;48.590;7.752;2022-12-08T12:34:57;6.80;82.60
25871;DHT22;13689;48.590;7.752;2022-12-08T12:37:37;6.80;82.60
25871;DHT22;13689;48.590;7.752;2022-12-08T12:40:17;6.80;82.60
25871;DHT22;13689;48.590;7.752;2022-12-08T12:42:44;6.90;82.60
25871;DHT22;13689;48.590;7.752;2022-12-08T12:50:10;6.80;82.20
25871;DHT22;13689;48.590;7.752;2022-12-08T12:52:36;6.80;82.20
25871;DHT22;13689;48.590;7.752;2022-12-08T13:00:18;6.80;82.00
25871;DHT22;13689;48.590;7.752;2022-12-08T13:07:42;6.80;81.80
25871;DHT22;13689;48.590;7.752;2022-12-08T13:12:41;6.80;81.60
25871;DHT22;13689;48.590;7.752;2022-12-08T13:15:12;6.80;81.60
25871;DHT22;13689;48.590;7.752;2022-12-08T13:17:42;6.80;81.50
25871;DHT22;13689;48.590;7.752;2022-12-08T13:20:15;6.80;81.50
25871;DHT22;13689;48.590;7.752;2022-12-08T13:22:45;6.80;81.50
25871;DHT22;13689;48.590;7.752;2022-12-08T13:27:56;6.80;81.40
25871;DHT22;13689;48.590;7.752;2022-12-08T13:30:38;6.80;81.20
25871;DHT22;13689;48.590;7.752;2022-12-08T13:33:07;6.80;81.10
25871;DHT22;13689;48.590;7.752;2022-12-08T13:35:34;6.70;80.80
25871;DHT22;13689;48.590;7.752;2022-12-08T13:38:03;6.70;81.00
25871;DHT22;13689;48.590;7.752;2022-12-08T13:40:40;6.60;81.10
25871;DHT22;13689;48.590;7.752;2022-12-08T13:45:38;6.70;81.20
25871;DHT22;13689;48.590;7.752;2022-12-08T13:48:19;6.60;80.80
25871;DHT22;13689;48.590;7.752;2022-12-08T13:53:35;6.60;81.00
25871;DHT22;13689;48.590;7.752;2022-12-08T13:56:03;6.60;81.10
25871;DHT22;13689;48.590;7.752;2022-12-08T13:58:33;6.60;80.90
25871;DHT22;13689;48.590;7.752;2022-12-08T14:03:45;6.60;81.10
25871;DHT22;13689;48.590;7.752;2022-12-08T14:06:25;6.60;80.90
25871;DHT22;13689;48.590;7.752;2022-12-08T14:08:53;6.60;80.80
25871;DHT22;13689;48.590;7.752;2022-12-08T14:12:05;6.50;80.60
25871;DHT22;13689;48.590;7.752;2022-12-08T14:14:06;6.50;80.70
25871;DHT22;13689;48.590;7.752;2022-12-08T14:16:41;6.50;80.80
25871;DHT22;13689;48.590;7.752;2022-12-08T14:19:13;6.50;80.70
25871;DHT22;13689;48.590;7.752;2022-12-08T14:21:40;6.40;80.70
25871;DHT22;13689;48.590;7.752;2022-12-08T14:24:05;6.50;80.80
25871;DHT22;13689;48.590;7.752;2022-12-08T14:26:32;6.40;80.60
25871;DHT22;13689;48.590;7.752;2022-12-08T14:28:58;6.40;80.80
25871;DHT22;13689;48.590;7.752;2022-12-08T14:31:24;6.40;80.80
25871;DHT22;13689;48.590;7.752;2022-12-08T14:33:50;6.40;80.80
25871;DHT22;13689;48.590;7.752;2022-12-08T14:36:15;6.40;80.80
25871;DHT22;13689;48.590;7.752;2022-12-08T14:38:41;6.40;80.60
25871;DHT22;13689;48.590;7.752;2022-12-08T14:41:07;6.30;80.60
25871;DHT22;13689;48.590;7.752;2022-12-08T14:43:33;6.30;80.70
25871;DHT22;13689;48.590;7.752;2022-12-08T14:46:00;6.30;80.70
25871;DHT22;13689;48.590;7.752;2022-12-08T14:53:20;6.30;80.60
25871;DHT22;13689;48.590;7.752;2022-12-08T14:55:46;6.20;80.40
25871;DHT22;13689;48.590;7.752;2022-12-08T14:58:25;6.20;80.50
25871;DHT22;13689;48.590;7.752;2022-12-08T15:00:53;6.20;80.50
25871;DHT22;13689;48.590;7.752;2022-12-08T15:03:21;6.20;80.40
25871;DHT22;13689;48.590;7.752;2022-12-08T15:05:49;6.20;80.50
25871;DHT22;13689;48.590;7.752;2022-12-08T15:08:15;6.20;80.40
25871;DHT22;13689;48.590;7.752;2022-12-08T15:10:41;6.20;80.40
25871;DHT22;13689;48.590;7.752;2022-12-08T15:15:50;6.10;80.20
25871;DHT22;13689;48.590;7.752;2022-12-08T15:18:29;6.10;80.30
25871;DHT22;13689;48.590;7.752;2022-12-08T15:20:59;6.10;80.20
25871;DHT22;13689;48.590;7.752;2022-12-08T15:23:26;6.10;80.00
25871;DHT22;13689;48.590;7.752;2022-12-08T15:25:52;6.10;80.10
25871;DHT22;13689;48.590;7.752;2022-12-08T15:28:18;6.10;80.10
25871;DHT22;13689;48.590;7.752;2022-12-08T15:30:45;6.10;80.00
25871;DHT22;13689;48.590;7.752;2022-12-08T15:33:10;6.10;80.00
25871;DHT22;13689;48.590;7.752;2022-12-08T15:35:36;6.10;80.00
25871;DHT22;13689;48.590;7.752;2022-12-08T15:38:01;6.00;79.90
25871;DHT22;13689;48.590;7.752;2022-12-08T15:40:27;6.10;80.00
25871;DHT22;13689;48.590;7.752;2022-12-08T15:42:52;6.10;79.90
25871;DHT22;13689;48.590;7.752;2022-12-08T15:45:18;6.00;79.80
25871;DHT22;13689;48.590;7.752;2022-12-08T15:47:47;6.00;79.80
25871;DHT22;13689;48.590;7.752;2022-12-08T15:50:16;6.00;79.80
25871;DHT22;13689;48.590;7.752;2022-12-08T15:52:42;6.00;79.90
25871;DHT22;13689;48.590;7.752;2022-12-08T15:55:26;6.00;79.90
25871;DHT22;13689;48.590;7.752;2022-12-08T15:57:52;6.00;79.90
25871;DHT22;13689;48.590;7.752;2022-12-08T16:02:47;6.00;79.90
25871;DHT22;13689;48.590;7.752;2022-12-08T16:05:13;6.00;79.90
25871;DHT22;13689;48.590;7.752;2022-12-08T16:07:38;6.00;80.00
25871;DHT22;13689;48.590;7.752;2022-12-08T16:10:04;5.90;79.90
25871;DHT22;13689;48.590;7.752;2022-12-08T16:12:30;5.90;80.00
25871;DHT22;13689;48.590;7.752;2022-12-08T16:15:14;5.90;80.00
25871;DHT22;13689;48.590;7.752;2022-12-08T16:17:39;5.90;79.90
25871;DHT22;13689;48.590;7.752;2022-12-08T16:20:14;5.90;79.90
25871;DHT22;13689;48.590;7.752;2022-12-08T16:22:41;5.90;80.00
25871;DHT22;13689;48.590;7.752;2022-12-08T16:25:06;5.90;79.90
25871;DHT22;13689;48.590;7.752;2022-12-08T16:27:32;5.90;79.90
25871;DHT22;13689;48.590;7.752;2022-12-08T16:29:59;5.90;79.90
25871;DHT22;13689;48.590;7.752;2022-12-08T16:32:31;5.90;79.90
25871;DHT22;13689;48.590;7.752;2022-12-08T16:34:57;5.90;80.00
25871;DHT22;13689;48.590;7.752;2022-12-08T16:37:23;5.90;80.00
25871;DHT22;13689;48.590;7.752;2022-12-08T16:39:49;5.90;80.00
25871;DHT22;13689;48.590;7.752;2022-12-08T16:42:16;5.90;80.00
25871;DHT22;13689;48.590;7.752;2022-12-08T16:45:01;5.90;80.00
25871;DHT22;13689;48.590;7.752;2022-12-08T16:47:27;5.90;80.00
25871;DHT22;13689;48.590;7.752;2022-12-08T16:49:52;5.80;79.90
25871;DHT22;13689;48.590;7.752;2022-12-08T16:52:18;5.90;80.00
25871;DHT22;13689;48.590;7.752;2022-12-08T16:54:43;5.90;80.00
25871;DHT22;13689;48.590;7.752;2022-12-08T16:57:09;5.90;79.90
25871;DHT22;13689;48.590;7.752;2022-12-08T16:59:36;5.80;79.80
25871;DHT22;13689;48.590;7.752;2022-12-08T17:02:02;5.80;79.80
25871;DHT22;13689;48.590;7.752;2022-12-08T17:04:28;5.80;79.80
25871;DHT22;13689;48.590;7.752;2022-12-08T17:06:54;5.80;79.80
25871;DHT22;13689;48.590;7.752;2022-12-08T17:09:19;5.80;79.80
25871;DHT22;13689;48.590;7.752;2022-12-08T17:11:45;5.80;79.80
25871;DHT22;13689;48.590;7.752;2022-12-08T17:14:11;5.80;79.80